createdAt,value
2018-04-15T00:06:00.553Z,43.20
2018-04-15T00:12:04.962Z,40.60
2018-04-15T00:18:09.640Z,43.30
2018-04-15T00:24:14.477Z,37.67
2018-04-15T00:30:19.055Z,40.37
2018-04-15T00:36:23.543Z,41.43
2018-04-15T00:42:28.051Z,37.50
2018-04-15T00:48:32.438Z,41.50
2018-04-15T00:54:36.804Z,45.53
2018-04-15T01:00:41.768Z,41.90
2018-04-15T01:06:46.506Z,40.27
2018-04-15T01:12:50.988Z,42.40
2018-04-15T01:18:56.130Z,39.27
2018-04-15T01:25:00.557Z,41.23
2018-04-15T01:31:05.687Z,40.87
2018-04-15T01:37:10.268Z,41.47
2018-04-15T01:43:15.148Z,40.47
2018-04-15T01:49:19.631Z,41.07
2018-04-15T01:55:24.092Z,42.73
2018-04-15T02:01:28.678Z,37.83
2018-04-15T02:07:33.042Z,38.90
2018-04-15T02:13:37.407Z,35.50
2018-04-15T02:19:42.596Z,37.50
2018-04-15T02:25:47.740Z,40.33
2018-04-15T02:31:52.120Z,39.57
2018-04-15T02:37:56.563Z,40.87
2018-04-15T02:44:01.063Z,38.73
2018-04-15T02:50:05.435Z,37.43
2018-04-15T02:56:10.062Z,39.87
2018-04-15T03:02:14.621Z,34.90
2018-04-15T03:08:19.313Z,37.67
2018-04-15T03:14:24.431Z,40.40
2018-04-15T03:20:29.551Z,37.87
2018-04-15T03:26:33.908Z,36.70
2018-04-15T03:32:38.286Z,38.60
2018-04-15T03:38:43.705Z,36.60
2018-04-15T03:44:48.069Z,39.60
2018-04-15T03:50:52.461Z,38.10
2018-04-15T03:56:56.881Z,40.80
2018-04-15T04:03:01.240Z,38.40
2018-04-15T04:09:05.619Z,43.77
2018-04-15T04:15:10.342Z,42.70
2018-04-15T04:21:32.946Z,39.53
2018-04-15T04:27:37.356Z,41.60
2018-04-15T04:33:42.164Z,40.10
2018-04-15T04:39:46.594Z,40.43
2018-04-15T04:45:51.026Z,38.93
2018-04-15T04:51:55.440Z,35.70
2018-04-15T04:57:59.931Z,41.53
2018-04-15T05:04:04.296Z,38.37
2018-04-15T05:10:08.699Z,40.47
2018-04-15T05:16:13.663Z,39.40
2018-04-15T05:22:18.052Z,39.90
2018-04-15T05:28:22.403Z,39.77
2018-04-15T05:34:26.769Z,39.67
2018-04-15T05:40:31.143Z,42.10
2018-04-15T05:46:35.547Z,41.80
2018-04-15T05:52:39.941Z,43.43
2018-04-15T05:58:44.548Z,39.70
2018-04-15T06:04:49.674Z,44.37
2018-04-15T06:10:54.025Z,46.10
2018-04-15T06:16:59.165Z,45.27
2018-04-15T06:23:03.541Z,47.10
2018-04-15T06:29:07.927Z,45.27
2018-04-15T06:35:12.741Z,46.40
2018-04-15T06:41:17.249Z,48.17
2018-04-15T06:47:21.612Z,45.47
2018-04-15T06:53:26.809Z,46.53
2018-04-15T06:59:31.940Z,47.00
2018-04-15T07:05:36.335Z,48.07
2018-04-15T07:11:40.709Z,48.80
2018-04-15T07:17:45.348Z,47.70
2018-04-15T07:23:49.711Z,44.13
2018-04-15T07:29:54.093Z,44.97
2018-04-15T07:35:58.463Z,46.17
2018-04-15T07:42:02.837Z,47.87
2018-04-15T07:48:07.227Z,47.37
2018-04-15T07:54:11.690Z,44.03
2018-04-15T08:00:16.066Z,40.83
2018-04-15T08:06:20.487Z,42.17
2018-04-15T08:12:24.893Z,37.77
2018-04-15T08:18:29.262Z,39.40
2018-04-15T08:24:33.632Z,39.13
2018-04-15T08:30:38.094Z,38.50
2018-04-15T08:36:42.699Z,35.60
2018-04-15T08:42:47.078Z,35.80
2018-04-15T08:48:52.238Z,31.60
2018-04-15T08:54:56.597Z,30.30
2018-04-15T09:01:01.009Z,32.20
2018-04-15T09:07:05.377Z,29.50
2018-04-15T09:13:10.325Z,31.50
2018-04-15T09:19:15.559Z,29.07
2018-04-15T09:25:20.079Z,24.57
2018-04-15T09:31:24.491Z,21.60
2018-04-15T09:37:28.959Z,21.60
2018-04-15T09:43:33.327Z,22.50
2018-04-15T09:49:37.748Z,17.30
2018-04-15T09:55:42.793Z,19.33
2018-04-15T10:01:47.264Z,18.57
2018-04-15T10:07:51.720Z,18.10
2018-04-15T10:13:56.111Z,18.00
2018-04-15T10:20:00.602Z,19.70
2018-04-15T10:26:04.980Z,19.40
2018-04-15T10:32:09.374Z,19.37
2018-04-15T10:38:13.806Z,16.43
2018-04-15T10:44:18.190Z,14.30
2018-04-15T10:50:22.559Z,14.00
2018-04-15T10:56:26.959Z,14.17
2018-04-15T11:02:31.419Z,14.73
2018-04-15T11:08:35.801Z,13.20
2018-04-15T11:14:41.019Z,13.87
2018-04-15T11:20:46.254Z,13.67
2018-04-15T11:26:51.488Z,11.40
2018-04-15T11:32:55.837Z,11.27
2018-04-15T11:39:00.238Z,11.70
2018-04-15T11:45:04.611Z,11.40
2018-04-15T11:51:08.986Z,13.13
2018-04-15T11:57:13.762Z,12.87
2018-04-15T12:03:18.179Z,13.50
2018-04-15T12:09:22.574Z,12.33
2018-04-15T12:15:27.705Z,12.00
2018-04-15T12:21:32.062Z,11.20
2018-04-15T12:27:36.476Z,11.17
2018-04-15T12:33:41.169Z,10.40
2018-04-15T12:39:45.630Z,10.30
2018-04-15T12:45:50.179Z,10.53
2018-04-15T12:51:54.609Z,9.47
2018-04-15T12:57:59.031Z,10.67
2018-04-15T13:04:03.424Z,11.37
2018-04-15T13:10:07.808Z,10.80
2018-04-15T13:16:12.251Z,10.73
2018-04-15T13:22:17.501Z,10.30
2018-04-15T13:28:21.878Z,8.93
2018-04-15T13:34:26.249Z,8.60
2018-04-15T13:40:30.633Z,8.67
2018-04-15T13:46:35.000Z,10.50
2018-04-15T13:52:39.380Z,7.80
2018-04-15T13:58:43.768Z,8.33
2018-04-15T14:04:48.136Z,8.30
2018-04-15T14:10:52.527Z,7.30
2018-04-15T14:16:56.887Z,6.90
2018-04-15T14:23:01.368Z,6.73
2018-04-15T14:29:05.725Z,6.83
2018-04-15T14:35:10.128Z,6.37
2018-04-15T14:41:14.630Z,5.57
2018-04-15T14:47:19.802Z,6.87
2018-04-15T14:53:24.168Z,6.10
2018-04-15T14:59:29.388Z,6.27
2018-04-15T15:05:34.540Z,5.93
2018-04-15T15:11:38.934Z,6.23
2018-04-15T15:17:43.345Z,7.40
2018-04-15T15:23:47.747Z,7.77
2018-04-15T15:29:52.187Z,7.83
2018-04-15T15:35:57.365Z,7.43
2018-04-15T15:42:02.572Z,7.13
2018-04-15T15:48:06.935Z,7.17
2018-04-15T15:54:12.136Z,8.30
2018-04-15T16:00:16.511Z,7.37
2018-04-15T16:06:21.637Z,6.57
2018-04-15T16:12:26.003Z,7.47
2018-04-15T16:18:30.451Z,8.20
2018-04-15T16:24:35.653Z,8.23
2018-04-15T16:30:41.769Z,7.73
2018-04-15T16:36:46.891Z,8.90
2018-04-15T16:42:51.269Z,8.23
2018-04-15T16:48:55.647Z,8.80
2018-04-15T16:55:00.096Z,8.40
2018-04-15T17:01:04.469Z,8.80
2018-04-15T17:07:08.843Z,9.00
2018-04-15T17:13:13.375Z,7.40
2018-04-15T17:19:17.936Z,8.33
2018-04-15T17:25:22.360Z,12.03
2018-04-15T17:31:27.567Z,18.43
2018-04-15T17:37:31.928Z,17.03
2018-04-15T17:43:37.064Z,17.77
2018-04-15T17:49:42.397Z,20.77
2018-04-15T17:55:46.801Z,19.80
2018-04-15T18:01:51.182Z,22.20
2018-04-15T18:07:55.558Z,25.80
2018-04-15T18:14:00.785Z,25.07
2018-04-15T18:20:05.160Z,27.83
2018-04-15T18:26:09.670Z,28.40
2018-04-15T18:32:14.136Z,26.17
2018-04-15T18:38:18.579Z,27.27
2018-04-15T18:44:22.955Z,27.97
2018-04-15T18:50:27.354Z,28.33
2018-04-15T18:56:31.733Z,29.17
2018-04-15T19:02:36.212Z,30.63
2018-04-15T19:08:42.426Z,30.17
2018-04-15T19:14:47.032Z,30.53
2018-04-15T19:20:51.400Z,30.57
2018-04-15T19:26:55.798Z,30.37
2018-04-15T19:33:00.973Z,29.90
2018-04-15T19:39:06.177Z,30.40
2018-04-15T19:45:12.070Z,32.20
2018-04-15T19:51:16.683Z,34.40
2018-04-15T19:57:21.117Z,32.50
2018-04-15T20:03:25.523Z,32.10
2018-04-15T20:09:30.710Z,30.87
2018-04-15T20:15:35.907Z,31.20
2018-04-15T20:21:42.067Z,30.87
2018-04-15T20:27:46.629Z,31.57
2018-04-15T20:33:51.003Z,34.00
2018-04-15T20:39:55.393Z,29.77
2018-04-15T20:45:59.832Z,29.33
2018-04-15T20:52:04.987Z,32.20
2018-04-15T20:58:09.395Z,30.97
2018-04-15T21:04:13.798Z,29.20
2018-04-15T21:10:18.209Z,28.83
2018-04-15T21:16:22.703Z,28.10
2018-04-15T21:22:27.091Z,30.13
2018-04-15T21:28:31.476Z,28.60
2018-04-15T21:34:36.694Z,28.10
2018-04-15T21:40:41.415Z,29.20
2018-04-15T21:46:45.922Z,26.63
2018-04-15T21:52:51.103Z,27.77
2018-04-15T21:58:55.642Z,28.03
2018-04-15T22:05:00.042Z,29.40
2018-04-15T22:11:04.418Z,27.57
2018-04-15T22:17:08.894Z,25.90
2018-04-15T22:23:13.429Z,26.60
2018-04-15T22:29:17.803Z,27.80
2018-04-15T22:35:22.166Z,26.03
2018-04-15T22:41:27.314Z,26.63
2018-04-15T22:47:31.696Z,28.33
2018-04-15T22:53:36.079Z,26.27
2018-04-15T22:59:40.718Z,27.90
2018-04-15T23:05:45.092Z,26.43
2018-04-15T23:11:49.577Z,28.60
2018-04-15T23:17:53.945Z,29.77
2018-04-15T23:23:58.346Z,29.07
2018-04-15T23:30:02.720Z,28.90
2018-04-15T23:36:07.101Z,27.17
2018-04-15T23:42:11.460Z,28.33
2018-04-15T23:48:15.918Z,27.80
2018-04-15T23:54:20.295Z,27.73
